• Join FlightAware (Why Join?)
  • Login
  • US Flag 
 
01:08PM EST


 

Airport Tracker/Info


-or-


 

Live Flight TrackerFlight Track Log ✈ JBU185 ✈ 20-Apr-2013 ✈ KJFK - KSAN

Flight Track Log - Related Links

Times and Time Zones

All times are in EDT time to prevent confusion due to time zone crossing. See the JBU185 flight status page for this flight to view local times or setup timezone preferences in your user account.

Time Position Orientation Groundspeed Altitude Reporting Facility
EDT Latitude Longitude Course Direction KTS MPH feet Rate Location/Type
06:06PM 40.6500 -73.8333 226° Southwest 157 181 1,400  Level New York TRACON
06:07PM 40.6167 -73.8833 229° Southwest 224 258 2,500 2,040 Climbing New York TRACON
06:08PM 40.5667 -73.9333 217° Southwest 260 299 5,500 3,000 Climbing New York TRACON
06:09PM 40.4371 -74.0944 229° Southwest  Level FlightAware Approximate
06:09PM 40.5000 -73.9833 210° Southwest 276 318 8,600  Level New York TRACON
06:10PM 40.3663 -74.2005 232° Southwest  Level FlightAware Approximate
06:10PM 40.4333 -74.0333 210° Southwest 276 318 11,100  Level New York TRACON
06:11PM 40.2999 -74.3114 232° Southwest  Level FlightAware Approximate
06:11PM 40.4000 -74.1333 246° West 316 364 12,700  Level New York TRACON
06:12PM 40.2348 -74.4203 226° Southwest  Level FlightAware Approximate
06:12PM 40.3708 -74.1736 226° Southwest 319 367 13,900  Level New York Center
06:13PM 40.3178 -74.2797 237° Southwest 324 373 16,200 1,560 Climbing New York Center
06:14PM 40.2736 -74.3647 236° Southwest 324 373 17,000 900 Climbing New York Center
06:15PM 40.2139 -74.4728 234° Southwest 334 384 18,100 1,380 Climbing New York Center
06:16PM 40.1914 -74.5911 256° West 334 384 19,900 1,740 Climbing New York Center
06:17PM 40.1853 -74.7106 266° West 340 391 21,700 1,500 Climbing New York Center
06:18PM 40.1747 -74.8347 264° West 340 391 22,900 1,140 Climbing New York Center
06:19PM 40.1669 -74.9431 265° West 345 397 24,000 1,140 Climbing New York Center
06:20PM 40.1581 -75.0756 265° West 350 403 25,200 1,140 Climbing New York Center
06:21PM 40.1469 -75.2025 264° West 355 409 26,400 1,020 Climbing New York Center
06:22PM 40.1358 -75.3322 264° West 360 414 27,300 1,020 Climbing New York Center
06:23PM 40.1514 -75.4689 279° West 367 422 28,500 960 Climbing New York Center
06:24PM 40.1875 -75.6072 289° West 385 443 29,300 1,200 Climbing New York Center
06:25PM 40.1881 -75.7431 270° West 385 443 31,000 1,560 Climbing New York Center
06:26PM 40.1847 -75.8653 268° West 365 420 32,400 960 Climbing New York Center
06:27PM 40.1836 -75.9903 269° West 353 406 33,000 540 Climbing New York Center
06:28PM 40.1794 -76.1311 268° West 353 406 33,600 480 Climbing New York Center
06:29PM 40.1778 -76.2561 269° West 345 397 34,000 180 Climbing New York Center
06:30PM 40.1722 -76.3750 267° West 350 403 34,000  Level New York Center
06:31PM 40.1700 -76.5081 269° West 355 409 34,000  Level New York Center
06:32PM 40.1678 -76.6383 269° West 366 421 34,000  Level New York Center
06:33PM 40.1656 -76.7658 269° West 366 421 34,000  Level New York Center
06:34PM 40.1486 -76.8919 260° West 360 414 34,000  Level New York Center
06:35PM 40.0989 -77.0072 241° Southwest 341 392 34,000  Level New York Center
06:36PM 40.0758 -77.1244 256° West 336 387 34,000  Level New York Center
06:38PM 40.0778 -77.4328 271° West 360 414 34,000  Level Cleveland Center
06:39PM 40.0772 -77.5686 270° West 366 421 34,000  Level Cleveland Center
06:40PM 40.0767 -77.7017 270° West 366 421 34,000  Level Cleveland Center
06:41PM 40.0778 -77.8344 271° West 371 427 34,000  Level Cleveland Center
06:42PM 40.0728 -77.9731 267° West 371 427 34,000  Level Cleveland Center
06:43PM 40.0714 -78.1061 269° West 376 433 34,000  Level Cleveland Center
06:44PM 40.0703 -78.2444 269° West 376 433 34,000  Level Cleveland Center
06:45PM 40.0667 -78.3803 268° West 376 433 34,000  Level Cleveland Center
06:46PM 40.0672 -78.5131 270° West 376 433 34,000  Level Cleveland Center
06:47PM 40.0675 -78.6489 270° West 376 433 34,000  Level Cleveland Center
06:48PM 40.0633 -78.7819 268° West 376 433 34,000  Level Cleveland Center
06:49PM 40.0611 -78.9122 269° West 376 433 34,000  Level Cleveland Center
06:50PM 40.0589 -79.0478 269° West 371 427 34,000  Level Cleveland Center
06:51PM 40.0564 -79.1808 269° West 366 421 34,000  Level Cleveland Center
06:52PM 40.0539 -79.3136 269° West 361 415 34,000  Level Cleveland Center
06:53PM 40.0550 -79.4331 271° West 366 421 34,000  Level Cleveland Center
06:54PM 40.0522 -79.5661 268° West 366 421 34,000  Level Cleveland Center
06:55PM 40.0492 -79.6989 268° West 366 421 34,000  Level Cleveland Center
06:56PM 40.0481 -79.8319 269° West 366 421 34,000  Level Cleveland Center
06:57PM 40.0447 -79.9675 268° West 366 421 34,000  Level Cleveland Center
06:58PM 40.0411 -80.1031 268° West 366 421 34,000  Level Cleveland Center
07:01PM 40.0283 -80.4303 267° West 376 433 34,000  Level Indianapolis Center
07:02PM 40.0247 -80.5650 268° West 369 425 34,000  Level Indianapolis Center
07:03PM 40.0200 -80.7019 267° West 371 427 34,000  Level Indianapolis Center
07:04PM 40.0164 -80.8394 268° West 375 432 34,000  Level Indianapolis Center
07:05PM 40.0142 -80.9764 269° West 376 433 34,000  Level Indianapolis Center
07:06PM 40.0128 -81.1156 269° West 379 436 34,000  Level Indianapolis Center
07:07PM 40.0103 -81.2522 269° West 375 432 34,000  Level Indianapolis Center
07:08PM 40.0083 -81.3894 269° West 374 430 34,000  Level Indianapolis Center
07:09PM 40.0053 -81.5236 268° West 368 423 34,000  Level Indianapolis Center
07:10PM 40.0025 -81.6614 269° West 373 429 34,000  Level Indianapolis Center
07:11PM 39.9997 -81.8036 269° West 380 437 34,000 -60 Level Indianapolis Center
07:12PM 39.9961 -81.9425 268° West 381 438 33,900 -60 Descending Indianapolis Center
07:13PM 39.9939 -82.0828 269° West 384 442 33,900  Level Indianapolis Center
07:14PM 39.9894 -82.2236 268° West 385 443 34,000  Climbing Indianapolis Center
07:15PM 39.9861 -82.3664 268° West 389 448 34,000  Level Indianapolis Center
07:16PM 39.9822 -82.5069 268° West 386 444 34,000  Level Indianapolis Center
07:17PM 39.9769 -82.6711 268° West 383 441 34,000 -60 Level Indianapolis Center
07:18PM 39.9731 -82.8108 268° West 384 442 33,900 -60 Descending Indianapolis Center
07:19PM 39.9686 -82.9506 268° West 383 441 33,900  Level Indianapolis Center
07:20PM 39.9639 -83.0908 268° West 384 442 34,000  Climbing Indianapolis Center
07:21PM 39.9628 -83.2300 269° West 385 443 34,000  Level Indianapolis Center
07:22PM 39.9572 -83.3689 267° West 385 443 34,000  Level Indianapolis Center
07:23PM 39.9517 -83.5044 267° West 381 438 34,000 -60 Level Indianapolis Center
07:24PM 39.9467 -83.6392 267° West 377 434 33,900 -60 Descending Indianapolis Center
07:25PM 39.9422 -83.7753 268° West 376 433 33,900  Level Indianapolis Center
07:26PM 39.9369 -83.9128 267° West 377 434 34,000  Climbing Indianapolis Center
07:27PM 39.9311 -84.0522 267° West 382 440 34,000  Level Indianapolis Center
07:28PM 39.9267 -84.1917 268° West 382 440 34,000  Level Indianapolis Center
07:29PM 39.9200 -84.3306 266° West 382 440 34,000  Level Indianapolis Center
07:30PM 39.9136 -84.4697 267° West 382 440 34,000  Level Indianapolis Center
07:31PM 39.9075 -84.6086 267° West 382 440 34,000  Level Indianapolis Center
07:32PM 39.9019 -84.7475 267° West 382 440 34,000  Level Indianapolis Center
07:33PM 39.8944 -84.9089 267° West 380 437 34,000  Level Indianapolis Center
07:34PM 39.8861 -85.0475 266° West 381 438 34,000  Level Indianapolis Center
07:35PM 39.8800 -85.1861 267° West 381 438 34,000  Level Indianapolis Center
07:36PM 39.8719 -85.3264 266° West 384 442 34,000  Level Indianapolis Center
07:37PM 39.8650 -85.4667 266° West 384 442 34,000  Level Indianapolis Center
07:38PM 39.8589 -85.6061 267° West 385 443 34,000 -60 Level Indianapolis Center
07:39PM 39.8497 -85.7456 265° West 384 442 33,900  Descending Indianapolis Center
07:40PM 39.8425 -85.8867 266° West 386 444 34,000  Climbing Indianapolis Center
07:41PM 39.8344 -86.0325 266° West 388 447 34,000  Level Indianapolis Center
07:42PM 39.8267 -86.1742 266° West 390 449 34,000  Level Indianapolis Center
07:43PM 39.8175 -86.3158 265° West 392 451 34,000  Level Indianapolis Center
07:44PM 39.8161 -86.4581 269° West 393 452 34,000  Level Indianapolis Center
07:45PM 39.8194 -86.6011 272° West 394 453 34,000  Level Indianapolis Center
07:46PM 39.8228 -86.7428 272° West 393 452 34,000  Level Indianapolis Center
07:47PM 39.8256 -86.8853 271° West 394 453 34,000  Level Indianapolis Center
07:48PM 39.8275 -87.0278 271° West 394 453 34,000  Level Indianapolis Center
07:49PM 39.8300 -87.1706 271° West 394 453 34,000  Level Indianapolis Center
07:50PM 39.8322 -87.3158 271° West 399 459 34,000  Level Indianapolis Center
07:51PM 39.8339 -87.4581 271° West 396 456 34,000  Level Indianapolis Center
07:52PM 39.8356 -87.6003 271° West 394 453 34,000  Level Indianapolis Center
07:53PM 39.8369 -87.7417 271° West 392 451 34,000  Level Indianapolis Center
07:55PM 39.8383 -87.8842 271° West 392 451 34,000  Level Indianapolis Center
07:56PM 39.8397 -88.0253 271° West 392 451 34,000  Level Indianapolis Center
07:57PM 39.8408 -88.1681 271° West 393 452 34,000  Level Indianapolis Center
07:57PM 39.8400 -88.2486 269° West 394 453 34,000  Level Kansas City Center
07:58PM 39.8411 -88.3906 271° West 394 453 34,000  Level Kansas City Center
07:59PM 39.8411 -88.5631 270° West 395 455 34,000  Level Kansas City Center
08:00PM 39.8428 -88.7047 271° West 394 453 34,000  Level Kansas City Center
08:01PM 39.8422 -88.8481 270° West 394 453 34,000  Level Kansas City Center
08:02PM 39.8422 -88.9903 270° West 392 451 34,000  Level Kansas City Center
08:03PM 39.8422 -89.1317 270° West 391 450 34,000  Level Kansas City Center
08:04PM 39.8411 -89.2739 269° West 391 450 34,000  Level Kansas City Center
08:05PM 39.8411 -89.4156 270° West 392 451 34,000  Level Kansas City Center
08:06PM 39.8408 -89.5575 270° West 392 451 34,000  Level Kansas City Center
08:07PM 39.8381 -89.7008 269° West 394 453 34,000  Level Kansas City Center
08:08PM 39.8253 -89.8422 263° West 394 453 34,000  Level Kansas City Center
08:09PM 39.8094 -90.0106 263° West 391 450 34,000  Level Kansas City Center
08:10PM 39.7972 -90.1531 264° West 393 452 34,000  Level Kansas City Center
08:11PM 39.7847 -90.2939 263° West 392 451 34,000  Level Kansas City Center
08:12PM 39.7714 -90.4347 263° West 391 450 34,000  Level Kansas City Center
08:13PM 39.7581 -90.5744 263° West 391 450 34,000  Level Kansas City Center
08:14PM 39.7453 -90.7192 263° West 392 451 34,000  Level Kansas City Center
08:16PM 39.7308 -90.8567 262° West 389 448 34,000  Level Kansas City Center
08:17PM 39.7181 -90.9972 263° West 392 451 34,000  Level Kansas City Center
08:18PM 39.7042 -91.1356 263° West 390 449 34,000  Level Kansas City Center
08:19PM 39.6897 -91.2767 262° West 394 453 34,000  Level Kansas City Center
08:20PM 39.6750 -91.4267 263° West 396 456 34,000  Level Kansas City Center
08:21PM 39.6600 -91.5667 262° West 394 453 34,000  Level Kansas City Center
08:22PM 39.6444 -91.7083 262° West 396 456 34,000  Level Kansas City Center
08:23PM 39.6306 -91.8478 263° West 395 455 34,000  Level Kansas City Center
08:24PM 39.6117 -92.0175 262° West 396 456 34,000  Level Kansas City Center
08:25PM 39.5972 -92.1586 262° West 397 457 34,000  Level Kansas City Center
08:26PM 39.5811 -92.2989 262° West 396 456 34,000  Level Kansas City Center
08:27PM 39.5658 -92.4414 262° West 398 458 34,000  Level Kansas City Center
08:28PM 39.5494 -92.5847 262° West 402 463 34,000  Level Kansas City Center
08:29PM 39.5336 -92.7267 262° West 401 461 34,000  Level Kansas City Center
08:30PM 39.5164 -92.8669 261° West 397 457 34,000  Level Kansas City Center
08:31PM 39.5000 -93.0086 262° West 397 457 34,000  Level Kansas City Center
08:32PM 39.4836 -93.1489 261° West 397 457 34,000  Level Kansas City Center
08:33PM 39.4636 -93.3186 261° West 399 459 34,000  Level Kansas City Center
08:34PM 39.4453 -93.4589 260° West 398 458 34,000  Level Kansas City Center
08:35PM 39.4292 -93.6011 262° West 401 461 34,000  Level Kansas City Center
08:36PM 39.4100 -93.7553 261° West 400 460 34,000  Level Kansas City Center
08:37PM 39.3961 -93.8764 262° West 399 459 34,000  Level Kansas City Center
08:38PM 39.3761 -94.0358 261° West 403 464 34,000  Level Kansas City Center
08:39PM 39.3589 -94.1719 261° West 402 463 34,000  Level Kansas City Center
08:40PM 39.3389 -94.3311 261° West 402 463 34,000  Level Kansas City Center
08:41PM 39.3211 -94.4681 261° West 404 465 34,000  Level Kansas City Center
08:42PM 39.3042 -94.6044 261° West 403 464 34,000  Level Kansas City Center
08:43PM 39.2822 -94.7625 260° West 401 461 34,000  Level Kansas City Center
08:44PM 39.2667 -94.8983 262° West 400 460 34,000  Level Kansas City Center
08:45PM 39.2517 -95.0339 262° West 400 460 34,000  Level Kansas City Center
08:46PM 39.2325 -95.2011 262° West 398 458 34,000  Level Kansas City Center
08:47PM 39.2158 -95.3453 262° West 405 466 34,000  Level Kansas City Center
08:48PM 39.2003 -95.4778 261° West 403 464 34,000  Level Kansas City Center
08:49PM 39.1839 -95.6147 261° West 404 465 34,000  Level Kansas City Center
08:50PM 39.1647 -95.7756 261° West 407 468 34,000  Level Kansas City Center
08:51PM 39.1469 -95.9150 261° West 410 472 34,000  Level Kansas City Center
08:52PM 39.1272 -96.0756 261° West 405 466 34,000  Level Kansas City Center
08:53PM 39.1097 -96.2142 261° West 407 468 34,000  Level Kansas City Center
08:54PM 39.0925 -96.3522 261° West 408 470 34,000  Level Kansas City Center
08:55PM 39.0725 -96.5133 261° West 409 471 34,000  Level Kansas City Center
08:56PM 39.0525 -96.6494 259° West 406 467 34,000  Level Kansas City Center
08:57PM 39.0339 -96.7894 260° West 411 473 34,000  Level Kansas City Center
08:58PM 39.0122 -96.9519 260° West 413 475 34,000  Level Kansas City Center
08:59PM 38.9939 -97.0908 260° West 413 475 34,000  Level Kansas City Center
09:00PM 38.9767 -97.2481 262° West 416 479 34,000  Level Kansas City Center
09:01PM 38.9597 -97.3722 260° West 415 478 34,000  Level Kansas City Center
09:02PM 38.9375 -97.5339 260° West 413 475 34,000  Level Kansas City Center
09:03PM 38.9158 -97.6972 260° West 416 479 34,000  Level Kansas City Center
09:04PM 38.9003 -97.8372 262° West 415 478 34,000  Level Kansas City Center
09:05PM 38.8800 -97.9836 260° West 419 482 34,000  Level Kansas City Center
09:07PM 38.8619 -98.1297 261° West 418 481 34,000  Level Kansas City Center
09:08PM 38.8442 -98.2767 261° West 419 482 34,000  Level Kansas City Center
09:09PM 38.8256 -98.4222 261° West 417 480 34,000  Level Kansas City Center
09:10PM 38.8075 -98.5703 261° West 420 483 34,000  Level Kansas City Center
09:11PM 38.7869 -98.7172 260° West 421 484 34,000  Level Kansas City Center
09:12PM 38.7700 -98.8636 262° West 418 481 34,000  Level Kansas City Center
09:13PM 38.7458 -99.0400 260° West 420 483 34,000  Level Kansas City Center
09:14PM 38.7242 -99.1886 259° West 426 490 34,000  Level Kansas City Center
09:15PM 38.7050 -99.3369 261° West 424 488 34,000  Level Kansas City Center
09:15PM 38.6906 -99.4436 260° West 423 487 34,000  Level Denver Center
09:16PM 38.6678 -99.6094 260° West 426 490 34,000  Level Denver Center
09:17PM 38.6475 -99.7514 260° West 424 488 34,000  Level Denver Center
09:18PM 38.6253 -99.9181 260° West 427 491 34,000  Level Denver Center
09:19PM 38.6044 -100.0617 260° West 429 494 34,000  Level Denver Center
09:21PM 38.5836 -100.2025 259° West 427 491 34,000  Level Denver Center
09:22PM 38.5594 -100.3675 259° West 426 490 34,000  Level Denver Center
09:23PM 38.5386 -100.5089 259° West 424 488 34,000  Level Denver Center
09:24PM 38.5144 -100.6733 259° West 425 489 34,000  Level Denver Center
09:25PM 38.4928 -100.8158 259° West 426 490 34,000  Level Denver Center
09:26PM 38.4678 -100.9814 259° West 427 491 34,000  Level Denver Center
09:27PM 38.4475 -101.1233 260° West 427 491 34,000  Level Denver Center
09:28PM 38.4250 -101.2625 258° West 421 484 34,000  Level Denver Center
09:29PM 38.3994 -101.4278 259° West 425 489 34,000  Level Denver Center
09:30PM 38.3786 -101.5686 259° West 424 488 34,000  Level Denver Center
09:31PM 38.3522 -101.7314 258° West 420 483 34,000  Level Denver Center
09:32PM 38.3303 -101.8697 259° West 418 481 34,000  Level Denver Center
09:33PM 38.3078 -102.0097 258° West 419 482 34,000  Level Denver Center
09:34PM 38.2817 -102.1711 258° West 419 482 34,000  Level Denver Center
09:35PM 38.2597 -102.3103 259° West 420 483 34,000  Level Denver Center
09:36PM 38.2319 -102.4736 258° West 423 487 34,000  Level Denver Center
09:37PM 38.2092 -102.6153 258° West 427 491 34,000  Level Denver Center
09:38PM 38.1733 -102.7794 255° West 434 499 34,000  Level Denver Center
09:39PM 38.1375 -102.9172 252° West 431 496 34,100  Climbing Denver Center
09:40PM 38.1028 -103.0544 252° West 428 493 34,000 -60 Descending Denver Center
09:41PM 38.0650 -103.2011 252° West 425 489 34,000  Level Denver Center
09:42PM 38.0239 -103.3594 252° West 425 489 34,000  Level Denver Center
09:43PM 37.9883 -103.4944 252° West 425 489 34,000  Level Denver Center
09:44PM 37.9467 -103.6531 252° West 425 489 34,000  Level Denver Center
09:45PM 37.9108 -103.7894 252° West 427 491 34,000  Level Denver Center
09:46PM 37.8733 -103.9253 251° West 429 494 34,100  Climbing Denver Center
09:47PM 37.8311 -104.0819 251° West 426 490 34,000 -60 Descending Denver Center
09:48PM 37.7947 -104.2164 251° West 427 491 34,000  Level Denver Center
09:49PM 37.7525 -104.3725 251° West 424 488 34,100  Climbing Denver Center
09:50PM 37.7169 -104.5056 251° West 421 484 34,000 -60 Descending Denver Center
09:51PM 37.6739 -104.6597 251° West 419 482 34,000  Level Denver Center
09:52PM 37.6378 -104.7919 251° West 419 482 34,000  Level Denver Center
09:53PM 37.6008 -104.9242 251° West 419 482 34,000  Level Denver Center
09:54PM 37.5564 -105.0786 250° West 420 483 34,000  Level Denver Center
09:55PM 37.5214 -105.2072 251° West 421 484 34,000  Level Denver Center
09:56PM 37.4781 -105.3625 251° West 423 487 34,100  Climbing Denver Center
09:57PM 37.4400 -105.4942 250° West 419 482 34,000 -60 Descending Denver Center
09:58PM 37.3956 -105.6497 250° West 423 487 34,000  Level Denver Center
09:59PM 37.3578 -105.7817 250° West 421 484 34,000  Level Denver Center
10:00PM 37.3228 -105.9139 252° West 419 482 34,000  Level Denver Center
10:01PM 37.2836 -106.0686 252° West 418 481 34,000  Level Denver Center
10:02PM 37.2483 -106.1997 251° West 415 478 34,000  Level Denver Center
10:03PM 37.2111 -106.3544 253° West 416 479 34,000  Level Denver Center
10:04PM 37.1781 -106.4856 252° West 414 476 34,000  Level Denver Center
10:06PM 37.1411 -106.6169 251° West 417 480 34,000  Level Denver Center
10:07PM 37.1028 -106.7714 253° West 416 479 34,000  Level Denver Center
10:08PM 37.0689 -106.9058 253° West 421 484 34,000  Level Denver Center
10:09PM 37.0283 -107.0600 252° West 420 483 34,100  Climbing Denver Center
10:10PM 36.9953 -107.1886 252° West 410 472 34,000 -120 Descending Denver Center
10:11PM 36.9608 -107.3158 251° West 403 464 33,900  Descending Denver Center
10:12PM 36.9217 -107.4633 252° West 402 463 34,000  Climbing Denver Center
10:13PM 36.8875 -107.5908 252° West 404 465 34,000  Level Denver Center
10:14PM 36.8533 -107.7164 251° West 400 460 34,000  Level Denver Center
10:15PM 36.8131 -107.8653 251° West 405 466 34,000  Level Denver Center
10:16PM 36.7783 -107.9931 251° West 407 468 34,100  Climbing Denver Center
10:17PM 36.7397 -108.1397 252° West 401 461 34,000 -60 Descending Denver Center
10:18PM 36.7139 -108.2878 258° West 392 451 34,000  Level Denver Center
10:19PM 36.6864 -108.4367 257° West 396 456 34,000  Level Denver Center
10:20PM 36.6622 -108.5667 257° West 401 461 34,000  Level Denver Center
10:21PM 36.6381 -108.6936 257° West 397 457 34,000  Level Denver Center
10:22PM 36.6094 -108.8425 257° West 397 457 34,000  Level Denver Center
10:23PM 36.5856 -108.9719 257° West 402 463 34,000  Level Denver Center
10:24PM 36.5569 -109.1214 257° West 400 460 34,000  Level Denver Center
10:25PM 36.5319 -109.2469 256° West 395 455 34,000  Level Denver Center
10:26PM 36.5081 -109.3742 257° West 396 456 34,000  Level Denver Center
10:27PM 36.4783 -109.5225 256° West 397 457 34,000  Level Denver Center
10:28PM 36.4547 -109.6475 257° West 392 451 34,000  Level Denver Center
10:29PM 36.4303 -109.7719 256° West 389 448 34,000  Level Denver Center
10:30PM 36.4006 -109.9194 256° West 393 452 34,000  Level Denver Center
10:31PM 36.3764 -110.0469 257° West 395 455 34,000  Level Denver Center
10:32PM 36.3478 -110.1867 256° West 395 455 34,000  Level Denver Center
10:33PM 36.3208 -110.3189 256° West 396 456 34,000  Level Denver Center
10:34PM 36.2939 -110.4519 256° West 398 458 34,000  Level Denver Center
10:35PM 36.2656 -110.5847 255° West 399 459 34,000  Level Denver Center
10:36PM 36.2372 -110.7192 255° West 402 463 34,000  Level Denver Center
10:37PM 36.2103 -110.8517 256° West 400 460 34,000  Level Denver Center
10:38PM 36.1828 -110.9828 255° West 396 456 34,000  Level Denver Center
10:39PM 36.1544 -111.1164 255° West 399 459 34,000  Level Denver Center
10:40PM 36.1228 -111.2486 254° West 399 459 34,000  Level Denver Center
10:41PM 36.0636 -111.3728 240° Southwest 414 476 34,000  Level Denver Center
10:42PM 35.9831 -111.5150 235° Southwest 420 483 34,000  Level Denver Center
10:43PM 35.9164 -111.6325 235° Southwest 419 482 34,000  Level Denver Center
10:44PM 35.8489 -111.7514 235° Southwest 421 484 34,000  Level Denver Center
10:45PM 35.8325 -111.7781 233° Southwest 418 481 34,000  Level Los Angeles Center
10:46PM 35.7661 -111.8950 235° Southwest 418 481 34,000  Level Los Angeles Center
10:47PM 35.6844 -112.0350 234° Southwest 420 483 34,000  Level Los Angeles Center
10:48PM 35.6167 -112.1511 234° Southwest 421 484 34,000  Level Los Angeles Center
10:48PM 35.5903 -112.1978 235° Southwest 418 481 34,000  Level Albuquerque Center
10:49PM 35.5228 -112.3147 235° Southwest 420 483 34,000  Level Albuquerque Center
10:50PM 35.4547 -112.4322 235° Southwest 422 486 34,000  Level Albuquerque Center
10:51PM 35.4278 -112.4789 235° Southwest 421 484 34,000  Level Los Angeles Center
10:51PM 35.3742 -112.5703 234° Southwest 417 480 34,000  Level Albuquerque Center
10:52PM 35.3061 -112.6864 234° Southwest 417 480 34,000  Level Albuquerque Center
10:53PM 35.2364 -112.8036 234° Southwest 419 482 34,000  Level Albuquerque Center
10:54PM 35.1669 -112.9225 234° Southwest 421 484 34,000  Level Albuquerque Center
10:55PM 35.1542 -112.9431 233° Southwest 421 484 34,000  Level Los Angeles Center
10:55PM 35.0983 -113.0397 235° Southwest 421 484 34,000  Level Albuquerque Center
10:56PM 35.0289 -113.1547 234° Southwest 421 484 34,000  Level Albuquerque Center
10:57PM 34.9603 -113.2711 234° Southwest 422 486 34,000  Level Albuquerque Center
10:58PM 34.8906 -113.3864 234° Southwest 423 487 34,000  Level Albuquerque Center
10:59PM 34.8222 -113.5019 234° Southwest 423 487 34,000  Level Albuquerque Center
11:00PM 34.7531 -113.6186 234° Southwest 424 488 34,000  Level Albuquerque Center
11:01PM 34.6817 -113.7344 233° Southwest 429 494 34,000  Level Albuquerque Center
11:02PM 34.6047 -113.8633 234° Southwest 428 493 34,000  Level Albuquerque Center
11:04PM 34.5344 -113.9800 234° Southwest 428 493 34,000  Level Albuquerque Center
11:05PM 34.4653 -114.0925 233° Southwest 420 483 34,000  Level Albuquerque Center
11:05PM 34.4381 -114.1333 231° Southwest 413 475 34,000 -240 Level Los Angeles Center
11:06PM 34.3692 -114.2481 234° Southwest 420 483 33,700 -600 Descending Los Angeles Center
11:07PM 34.3278 -114.3164 234° Southwest 413 475 33,100 -1,020 Descending Albuquerque Center
11:08PM 34.2597 -114.4269 233° Southwest 411 473 32,100 -960 Descending Albuquerque Center
11:08PM 34.2331 -114.4714 234° Southwest 413 475 31,700 -960 Descending Los Angeles Center
11:09PM 34.1636 -114.5828 233° Southwest 415 478 30,700 -840 Descending Los Angeles Center
11:10PM 34.0933 -114.6989 234° Southwest 429 494 29,900 -360 Descending Los Angeles Center
11:11PM 34.0250 -114.8564 242° Southwest 439 505 30,000 -660 Climbing Los Angeles Center
11:12PM 33.9583 -115.0097 242° Southwest 433 498 28,600 -1,080 Descending Los Angeles Center
11:13PM 33.9019 -115.1336 241° Southwest 425 489 27,900 -600 Descending Los Angeles Center
11:14PM 33.8469 -115.2583 242° Southwest 423 487 27,500 -660 Descending Los Angeles Center
11:15PM 33.7917 -115.3819 242° Southwest 421 484 26,600 -960 Descending Los Angeles Center
11:16PM 33.7369 -115.5064 242° Southwest 422 486 25,600 -1,020 Descending Los Angeles Center
11:17PM 33.6814 -115.6272 241° Southwest 416 479 24,600 -1,200 Descending Los Angeles Center
11:18PM 33.6258 -115.7489 241° Southwest 416 479 23,200 -1,920 Descending Los Angeles Center
11:19PM 33.5519 -115.8519 229° Southwest 415 478 20,700 -1,740 Descending Los Angeles Center
11:20PM 33.4694 -115.9422 222° Southwest 407 468 19,700 -1,020 Descending Los Angeles Center
11:21PM 33.3853 -116.0333 222° Southwest 407 468 18,700 -1,140 Descending Los Angeles Center
11:22PM 33.2872 -116.1403 222° Southwest 401 461 17,500 -1,080 Descending Los Angeles Center
11:24PM 33.2061 -116.2283 222° Southwest 397 457 16,600 -1,560 Descending Los Angeles Center
11:25PM 33.1258 -116.3139 222° Southwest 392 451 14,400 -2,220 Descending Los Angeles Center
11:26PM 33.0481 -116.3986 222° Southwest 381 438 12,100 -2,460 Descending Los Angeles Center
11:27PM 32.9894 -116.4883 232° Southwest 360 414 9,500 -1,620 Descending Los Angeles Center
11:28PM 32.9383 -116.5603 230° Southwest 297 342 8,900 -540 Descending Los Angeles Center
11:29PM 32.8772 -116.6467 230° Southwest 288 331 8,400 -1,380 Descending Los Angeles Center
11:30PM 32.8267 -116.7178 230° Southwest 286 329 6,200 -1,260 Descending Los Angeles Center
11:31PM 32.7783 -116.7856 230° Southwest 276 318 5,900 -540 Descending Los Angeles Center
11:32PM 32.7328 -116.8483 229° Southwest 260 299 5,000 -900 Descending Los Angeles Center
11:33PM 32.6833 -116.9167 229° Southwest 249 287 4,200 -900 Descending Southern California TRACON
11:34PM 32.6833 -116.9833 270° West 229 264 3,500 -900 Descending Southern California TRACON
11:35PM 32.7000 -117.0500 287° West 208 239 2,500 -1,020 Descending Southern California TRACON
11:36PM 32.7167 -117.1167 287° West 177 204 1,400 -960 Descending Southern California TRACON
11:37PM 32.7333 -117.1500 301° West 143 165 600 -900 Descending Southern California TRACON
11:37PM 32.7278 -117.1636 244° Southwest 154 177 300 -900 Descending Los Angeles Center